sensor_id;sensor_type;location;lat;lon;timestamp;temperature;humidity
17148;DHT22;8689;47.364;8.796;2023-12-20T00:01:05;1.70;99.90
17148;DHT22;8689;47.364;8.796;2023-12-20T00:03:33;1.70;99.90
17148;DHT22;8689;47.364;8.796;2023-12-20T00:06:01;1.60;99.90
17148;DHT22;8689;47.364;8.796;2023-12-20T00:08:29;1.60;99.90
17148;DHT22;8689;47.364;8.796;2023-12-20T00:10:56;1.50;99.90
17148;DHT22;8689;47.364;8.796;2023-12-20T00:13:25;1.50;99.90
17148;DHT22;8689;47.364;8.796;2023-12-20T00:15:55;1.50;99.90
17148;DHT22;8689;47.364;8.796;2023-12-20T00:18:26;1.50;99.90
17148;DHT22;8689;47.364;8.796;2023-12-20T00:20:54;1.50;99.90
17148;DHT22;8689;47.364;8.796;2023-12-20T00:23:25;1.40;99.90
17148;DHT22;8689;47.364;8.796;2023-12-20T00:25:53;1.50;99.90
17148;DHT22;8689;47.364;8.796;2023-12-20T00:28:20;1.50;99.90
17148;DHT22;8689;47.364;8.796;2023-12-20T00:30:48;1.50;99.90
17148;DHT22;8689;47.364;8.796;2023-12-20T00:33:16;1.60;99.90
17148;DHT22;8689;47.364;8.796;2023-12-20T00:35:45;1.60;99.90
17148;DHT22;8689;47.364;8.796;2023-12-20T00:38:16;1.60;99.90
17148;DHT22;8689;47.364;8.796;2023-12-20T00:40:58;1.60;99.90
17148;DHT22;8689;47.364;8.796;2023-12-20T00:43:26;1.60;99.90
17148;DHT22;8689;47.364;8.796;2023-12-20T00:45:54;1.70;99.90
17148;DHT22;8689;47.364;8.796;2023-12-20T00:48:22;1.70;99.90
17148;DHT22;8689;47.364;8.796;2023-12-20T00:50:51;1.80;99.90
17148;DHT22;8689;47.364;8.796;2023-12-20T00:53:18;1.80;99.90
17148;DHT22;8689;47.364;8.796;2023-12-20T00:55:46;1.80;99.90
17148;DHT22;8689;47.364;8.796;2023-12-20T00:58:15;1.80;99.90
17148;DHT22;8689;47.364;8.796;2023-12-20T01:00:46;1.90;99.90
17148;DHT22;8689;47.364;8.796;2023-12-20T01:03:15;1.90;99.90
17148;DHT22;8689;47.364;8.796;2023-12-20T01:05:43;2.00;99.90
17148;DHT22;8689;47.364;8.796;2023-12-20T01:08:13;2.00;99.90
17148;DHT22;8689;47.364;8.796;2023-12-20T01:10:40;2.00;99.90
17148;DHT22;8689;47.364;8.796;2023-12-20T01:13:07;2.10;99.90
17148;DHT22;8689;47.364;8.796;2023-12-20T01:15:36;2.00;99.90
17148;DHT22;8689;47.364;8.796;2023-12-20T01:18:04;2.00;99.90
17148;DHT22;8689;47.364;8.796;2023-12-20T01:20:32;2.10;99.90
17148;DHT22;8689;47.364;8.796;2023-12-20T01:23:00;2.10;99.90
17148;DHT22;8689;47.364;8.796;2023-12-20T01:25:29;2.10;99.90
17148;DHT22;8689;47.364;8.796;2023-12-20T01:27:57;2.10;99.90
17148;DHT22;8689;47.364;8.796;2023-12-20T01:30:24;2.10;99.90
17148;DHT22;8689;47.364;8.796;2023-12-20T01:32:52;2.00;99.90
17148;DHT22;8689;47.364;8.796;2023-12-20T01:35:20;2.00;99.90
17148;DHT22;8689;47.364;8.796;2023-12-20T01:37:47;2.00;99.90
17148;DHT22;8689;47.364;8.796;2023-12-20T01:40:15;1.90;99.90
17148;DHT22;8689;47.364;8.796;2023-12-20T01:42:44;1.90;99.90
17148;DHT22;8689;47.364;8.796;2023-12-20T01:45:12;1.90;99.90
17148;DHT22;8689;47.364;8.796;2023-12-20T01:47:39;1.90;99.90
17148;DHT22;8689;47.364;8.796;2023-12-20T01:50:08;2.00;99.90
17148;DHT22;8689;47.364;8.796;2023-12-20T01:52:37;2.10;99.90
17148;DHT22;8689;47.364;8.796;2023-12-20T01:55:06;2.20;99.90
17148;DHT22;8689;47.364;8.796;2023-12-20T01:57:39;2.20;99.90
17148;DHT22;8689;47.364;8.796;2023-12-20T02:00:11;2.30;99.90
17148;DHT22;8689;47.364;8.796;2023-12-20T02:02:40;2.40;99.90
17148;DHT22;8689;47.364;8.796;2023-12-20T02:05:08;2.40;99.90
17148;DHT22;8689;47.364;8.796;2023-12-20T02:07:36;2.50;99.90
17148;DHT22;8689;47.364;8.796;2023-12-20T02:10:04;2.60;99.90
17148;DHT22;8689;47.364;8.796;2023-12-20T02:12:32;2.60;99.90
17148;DHT22;8689;47.364;8.796;2023-12-20T02:15:00;2.60;99.90
17148;DHT22;8689;47.364;8.796;2023-12-20T02:17:30;2.60;99.90
17148;DHT22;8689;47.364;8.796;2023-12-20T02:19:59;2.70;99.90
17148;DHT22;8689;47.364;8.796;2023-12-20T02:22:36;2.70;99.90
17148;DHT22;8689;47.364;8.796;2023-12-20T02:25:04;2.70;99.90
17148;DHT22;8689;47.364;8.796;2023-12-20T02:27:32;2.80;99.90
17148;DHT22;8689;47.364;8.796;2023-12-20T02:29:59;2.80;99.90
17148;DHT22;8689;47.364;8.796;2023-12-20T02:32:27;2.90;99.90
17148;DHT22;8689;47.364;8.796;2023-12-20T02:34:55;2.90;99.90
17148;DHT22;8689;47.364;8.796;2023-12-20T02:37:22;2.90;99.90
17148;DHT22;8689;47.364;8.796;2023-12-20T02:39:52;3.00;99.90
17148;DHT22;8689;47.364;8.796;2023-12-20T02:42:20;3.20;99.90
17148;DHT22;8689;47.364;8.796;2023-12-20T02:44:48;3.20;99.90
17148;DHT22;8689;47.364;8.796;2023-12-20T02:47:16;3.20;99.90
17148;DHT22;8689;47.364;8.796;2023-12-20T02:49:46;3.20;99.90
17148;DHT22;8689;47.364;8.796;2023-12-20T02:52:14;3.20;99.90
17148;DHT22;8689;47.364;8.796;2023-12-20T02:54:41;3.20;99.90
17148;DHT22;8689;47.364;8.796;2023-12-20T02:57:10;3.20;99.90
17148;DHT22;8689;47.364;8.796;2023-12-20T02:59:38;3.20;99.90
17148;DHT22;8689;47.364;8.796;2023-12-20T03:02:07;3.30;99.90
17148;DHT22;8689;47.364;8.796;2023-12-20T03:04:35;3.30;99.90
17148;DHT22;8689;47.364;8.796;2023-12-20T03:07:02;3.30;99.90
17148;DHT22;8689;47.364;8.796;2023-12-20T03:09:30;3.30;99.90
17148;DHT22;8689;47.364;8.796;2023-12-20T03:11:59;3.30;99.90
17148;DHT22;8689;47.364;8.796;2023-12-20T03:14:29;3.20;99.90
17148;DHT22;8689;47.364;8.796;2023-12-20T03:16:56;3.20;99.90
17148;DHT22;8689;47.364;8.796;2023-12-20T03:19:25;3.20;99.90
17148;DHT22;8689;47.364;8.796;2023-12-20T03:21:53;3.10;99.90
17148;DHT22;8689;47.364;8.796;2023-12-20T03:24:21;3.10;99.90
17148;DHT22;8689;47.364;8.796;2023-12-20T03:26:48;3.10;99.90
17148;DHT22;8689;47.364;8.796;2023-12-20T03:29:16;3.10;99.90
17148;DHT22;8689;47.364;8.796;2023-12-20T03:31:45;3.00;99.90
17148;DHT22;8689;47.364;8.796;2023-12-20T03:34:14;2.90;99.90
17148;DHT22;8689;47.364;8.796;2023-12-20T03:36:41;2.90;99.90
17148;DHT22;8689;47.364;8.796;2023-12-20T03:39:09;2.80;99.90
17148;DHT22;8689;47.364;8.796;2023-12-20T03:41:36;2.90;99.90
17148;DHT22;8689;47.364;8.796;2023-12-20T03:44:04;2.80;99.90
17148;DHT22;8689;47.364;8.796;2023-12-20T03:46:31;2.80;99.90
17148;DHT22;8689;47.364;8.796;2023-12-20T03:49:00;2.90;99.90
17148;DHT22;8689;47.364;8.796;2023-12-20T03:51:30;2.90;99.90
17148;DHT22;8689;47.364;8.796;2023-12-20T03:54:02;2.80;99.90
17148;DHT22;8689;47.364;8.796;2023-12-20T03:56:31;2.80;99.90
17148;DHT22;8689;47.364;8.796;2023-12-20T03:58:58;2.80;99.90
17148;DHT22;8689;47.364;8.796;2023-12-20T04:01:25;2.80;99.90
17148;DHT22;8689;47.364;8.796;2023-12-20T04:03:52;2.80;99.90
17148;DHT22;8689;47.364;8.796;2023-12-20T04:06:23;2.80;99.90
17148;DHT22;8689;47.364;8.796;2023-12-20T04:08:51;2.90;99.90
17148;DHT22;8689;47.364;8.796;2023-12-20T04:11:19;2.90;99.90
17148;DHT22;8689;47.364;8.796;2023-12-20T04:13:46;2.90;99.90
17148;DHT22;8689;47.364;8.796;2023-12-20T04:16:19;3.00;99.90
17148;DHT22;8689;47.364;8.796;2023-12-20T04:18:46;3.00;99.90
17148;DHT22;8689;47.364;8.796;2023-12-20T04:21:13;3.10;99.90
17148;DHT22;8689;47.364;8.796;2023-12-20T04:23:43;3.10;99.90
17148;DHT22;8689;47.364;8.796;2023-12-20T04:26:12;3.10;99.90
17148;DHT22;8689;47.364;8.796;2023-12-20T04:28:40;3.10;99.90
17148;DHT22;8689;47.364;8.796;2023-12-20T04:31:08;3.20;99.90
17148;DHT22;8689;47.364;8.796;2023-12-20T04:33:36;3.20;99.90
17148;DHT22;8689;47.364;8.796;2023-12-20T04:36:04;3.20;99.90
17148;DHT22;8689;47.364;8.796;2023-12-20T04:38:36;3.20;99.90
17148;DHT22;8689;47.364;8.796;2023-12-20T04:41:06;3.20;99.90
17148;DHT22;8689;47.364;8.796;2023-12-20T04:43:33;3.30;99.90
17148;DHT22;8689;47.364;8.796;2023-12-20T04:46:00;3.30;99.90
17148;DHT22;8689;47.364;8.796;2023-12-20T04:48:28;3.30;99.90
17148;DHT22;8689;47.364;8.796;2023-12-20T04:50:55;3.30;99.90
17148;DHT22;8689;47.364;8.796;2023-12-20T04:53:23;3.40;99.90
17148;DHT22;8689;47.364;8.796;2023-12-20T04:55:51;3.30;99.90
17148;DHT22;8689;47.364;8.796;2023-12-20T04:58:21;3.30;99.90
17148;DHT22;8689;47.364;8.796;2023-12-20T05:00:50;3.30;99.90
17148;DHT22;8689;47.364;8.796;2023-12-20T05:03:18;3.30;99.90
17148;DHT22;8689;47.364;8.796;2023-12-20T05:05:47;3.30;99.90
17148;DHT22;8689;47.364;8.796;2023-12-20T05:08:14;3.30;99.90
17148;DHT22;8689;47.364;8.796;2023-12-20T05:10:42;3.30;99.90
17148;DHT22;8689;47.364;8.796;2023-12-20T05:13:11;3.30;99.90
17148;DHT22;8689;47.364;8.796;2023-12-20T05:15:41;3.30;99.90
17148;DHT22;8689;47.364;8.796;2023-12-20T05:18:09;3.40;99.90
17148;DHT22;8689;47.364;8.796;2023-12-20T05:20:44;3.40;99.90
17148;DHT22;8689;47.364;8.796;2023-12-20T05:23:27;3.40;99.90
17148;DHT22;8689;47.364;8.796;2023-12-20T05:25:55;3.40;99.90
17148;DHT22;8689;47.364;8.796;2023-12-20T05:28:25;3.50;99.90
17148;DHT22;8689;47.364;8.796;2023-12-20T05:30:54;3.50;99.90
17148;DHT22;8689;47.364;8.796;2023-12-20T05:33:23;3.50;99.90
17148;DHT22;8689;47.364;8.796;2023-12-20T05:35:54;3.50;99.90
17148;DHT22;8689;47.364;8.796;2023-12-20T05:38:33;3.60;99.90
17148;DHT22;8689;47.364;8.796;2023-12-20T05:41:01;3.60;99.90
17148;DHT22;8689;47.364;8.796;2023-12-20T05:43:45;3.60;99.90
17148;DHT22;8689;47.364;8.796;2023-12-20T05:46:21;3.70;99.90
17148;DHT22;8689;47.364;8.796;2023-12-20T05:48:48;3.60;99.90
17148;DHT22;8689;47.364;8.796;2023-12-20T05:51:20;3.60;99.90
17148;DHT22;8689;47.364;8.796;2023-12-20T05:53:49;3.60;99.90
17148;DHT22;8689;47.364;8.796;2023-12-20T05:56:17;3.60;99.90
17148;DHT22;8689;47.364;8.796;2023-12-20T05:58:46;3.60;99.90
17148;DHT22;8689;47.364;8.796;2023-12-20T06:01:15;3.70;99.90
17148;DHT22;8689;47.364;8.796;2023-12-20T06:03:45;3.70;99.90
17148;DHT22;8689;47.364;8.796;2023-12-20T06:06:17;3.70;99.90
17148;DHT22;8689;47.364;8.796;2023-12-20T06:08:47;3.70;99.90
17148;DHT22;8689;47.364;8.796;2023-12-20T06:11:18;3.70;99.90
17148;DHT22;8689;47.364;8.796;2023-12-20T06:13:45;3.80;99.90
17148;DHT22;8689;47.364;8.796;2023-12-20T06:29:56;3.70;99.90
17148;DHT22;8689;47.364;8.796;2023-12-20T06:32:44;3.70;99.90
17148;DHT22;8689;47.364;8.796;2023-12-20T06:35:23;3.80;99.90
17148;DHT22;8689;47.364;8.796;2023-12-20T06:37:52;3.80;99.90
17148;DHT22;8689;47.364;8.796;2023-12-20T06:40:22;3.80;99.90
17148;DHT22;8689;47.364;8.796;2023-12-20T06:42:52;3.80;99.90
17148;DHT22;8689;47.364;8.796;2023-12-20T06:45:40;3.70;99.90
17148;DHT22;8689;47.364;8.796;2023-12-20T06:48:10;3.70;99.90
17148;DHT22;8689;47.364;8.796;2023-12-20T06:50:39;3.70;99.90
17148;DHT22;8689;47.364;8.796;2023-12-20T06:53:06;3.70;99.90
17148;DHT22;8689;47.364;8.796;2023-12-20T06:55:35;3.70;99.90
17148;DHT22;8689;47.364;8.796;2023-12-20T06:58:03;3.80;99.90
17148;DHT22;8689;47.364;8.796;2023-12-20T07:00:31;3.80;99.90
17148;DHT22;8689;47.364;8.796;2023-12-20T07:03:01;3.80;99.90
17148;DHT22;8689;47.364;8.796;2023-12-20T07:05:30;3.80;99.90
17148;DHT22;8689;47.364;8.796;2023-12-20T07:07:57;3.80;99.90
17148;DHT22;8689;47.364;8.796;2023-12-20T07:10:24;3.80;99.90
17148;DHT22;8689;47.364;8.796;2023-12-20T07:12:52;3.90;99.90
17148;DHT22;8689;47.364;8.796;2023-12-20T07:15:21;3.90;99.90
17148;DHT22;8689;47.364;8.796;2023-12-20T07:17:48;3.90;99.90
17148;DHT22;8689;47.364;8.796;2023-12-20T07:20:18;3.80;99.90
17148;DHT22;8689;47.364;8.796;2023-12-20T07:22:45;3.80;99.90
17148;DHT22;8689;47.364;8.796;2023-12-20T07:25:12;3.80;99.90
17148;DHT22;8689;47.364;8.796;2023-12-20T07:27:40;3.90;99.90
17148;DHT22;8689;47.364;8.796;2023-12-20T07:30:08;3.90;99.90
17148;DHT22;8689;47.364;8.796;2023-12-20T07:32:35;3.90;99.90
17148;DHT22;8689;47.364;8.796;2023-12-20T07:35:03;3.90;99.90
17148;DHT22;8689;47.364;8.796;2023-12-20T07:37:32;3.80;99.90
17148;DHT22;8689;47.364;8.796;2023-12-20T07:40:00;3.80;99.90
17148;DHT22;8689;47.364;8.796;2023-12-20T07:42:27;3.80;99.90
17148;DHT22;8689;47.364;8.796;2023-12-20T07:44:55;3.70;99.90
17148;DHT22;8689;47.364;8.796;2023-12-20T07:47:23;3.80;99.90
17148;DHT22;8689;47.364;8.796;2023-12-20T07:49:51;3.80;99.90
17148;DHT22;8689;47.364;8.796;2023-12-20T07:52:18;3.80;99.90
17148;DHT22;8689;47.364;8.796;2023-12-20T07:54:49;3.80;99.90
17148;DHT22;8689;47.364;8.796;2023-12-20T07:57:16;3.80;99.90
17148;DHT22;8689;47.364;8.796;2023-12-20T07:59:43;3.80;99.90
17148;DHT22;8689;47.364;8.796;2023-12-20T08:02:11;3.80;99.90
17148;DHT22;8689;47.364;8.796;2023-12-20T08:04:39;3.80;99.90
17148;DHT22;8689;47.364;8.796;2023-12-20T08:07:06;3.80;99.90
17148;DHT22;8689;47.364;8.796;2023-12-20T08:09:35;3.80;99.90
17148;DHT22;8689;47.364;8.796;2023-12-20T08:12:04;3.80;99.90
17148;DHT22;8689;47.364;8.796;2023-12-20T08:14:32;3.80;99.90
17148;DHT22;8689;47.364;8.796;2023-12-20T08:16:59;3.80;99.90
17148;DHT22;8689;47.364;8.796;2023-12-20T08:19:26;3.80;99.90
17148;DHT22;8689;47.364;8.796;2023-12-20T08:21:54;3.80;99.90
17148;DHT22;8689;47.364;8.796;2023-12-20T08:24:23;3.90;99.90
17148;DHT22;8689;47.364;8.796;2023-12-20T08:26:50;3.90;99.90
17148;DHT22;8689;47.364;8.796;2023-12-20T08:29:20;3.90;99.90
17148;DHT22;8689;47.364;8.796;2023-12-20T08:31:52;4.00;99.90
17148;DHT22;8689;47.364;8.796;2023-12-20T08:34:20;4.00;99.90
17148;DHT22;8689;47.364;8.796;2023-12-20T08:36:47;4.00;99.90
17148;DHT22;8689;47.364;8.796;2023-12-20T08:39:14;4.00;99.90
17148;DHT22;8689;47.364;8.796;2023-12-20T08:41:43;4.00;99.90
17148;DHT22;8689;47.364;8.796;2023-12-20T08:44:10;4.10;99.90
17148;DHT22;8689;47.364;8.796;2023-12-20T08:46:40;4.10;99.90
17148;DHT22;8689;47.364;8.796;2023-12-20T08:49:08;4.20;99.90
17148;DHT22;8689;47.364;8.796;2023-12-20T08:51:35;4.10;99.90
17148;DHT22;8689;47.364;8.796;2023-12-20T08:54:06;4.10;99.90
17148;DHT22;8689;47.364;8.796;2023-12-20T08:56:34;4.10;99.90
17148;DHT22;8689;47.364;8.796;2023-12-20T08:59:01;4.10;99.90
17148;DHT22;8689;47.364;8.796;2023-12-20T09:01:29;4.10;99.90
17148;DHT22;8689;47.364;8.796;2023-12-20T09:03:59;4.10;99.90
17148;DHT22;8689;47.364;8.796;2023-12-20T09:06:26;4.20;99.90
17148;DHT22;8689;47.364;8.796;2023-12-20T09:08:55;4.20;99.90
17148;DHT22;8689;47.364;8.796;2023-12-20T09:11:21;4.20;99.90
17148;DHT22;8689;47.364;8.796;2023-12-20T09:13:49;4.20;99.90
17148;DHT22;8689;47.364;8.796;2023-12-20T09:16:16;4.20;99.90
17148;DHT22;8689;47.364;8.796;2023-12-20T09:18:44;4.30;99.90
17148;DHT22;8689;47.364;8.796;2023-12-20T09:21:12;4.20;99.90
17148;DHT22;8689;47.364;8.796;2023-12-20T09:23:41;4.20;99.90
17148;DHT22;8689;47.364;8.796;2023-12-20T09:26:08;4.20;99.90
17148;DHT22;8689;47.364;8.796;2023-12-20T09:28:36;4.30;99.90
17148;DHT22;8689;47.364;8.796;2023-12-20T09:31:04;4.30;99.90
17148;DHT22;8689;47.364;8.796;2023-12-20T09:33:32;4.30;99.90
17148;DHT22;8689;47.364;8.796;2023-12-20T09:36:00;4.30;99.90
17148;DHT22;8689;47.364;8.796;2023-12-20T09:38:29;4.30;99.90
17148;DHT22;8689;47.364;8.796;2023-12-20T09:40:56;4.20;99.90
17148;DHT22;8689;47.364;8.796;2023-12-20T09:43:24;4.30;99.90
17148;DHT22;8689;47.364;8.796;2023-12-20T09:45:54;4.30;99.90
17148;DHT22;8689;47.364;8.796;2023-12-20T09:48:28;4.30;99.90
17148;DHT22;8689;47.364;8.796;2023-12-20T09:50:57;4.30;99.90
17148;DHT22;8689;47.364;8.796;2023-12-20T09:53:27;4.30;99.90
17148;DHT22;8689;47.364;8.796;2023-12-20T09:55:59;4.30;99.90
17148;DHT22;8689;47.364;8.796;2023-12-20T09:58:49;4.30;99.90
17148;DHT22;8689;47.364;8.796;2023-12-20T10:01:17;4.30;99.90
17148;DHT22;8689;47.364;8.796;2023-12-20T10:04:00;4.30;99.90
17148;DHT22;8689;47.364;8.796;2023-12-20T10:06:29;4.40;99.90
17148;DHT22;8689;47.364;8.796;2023-12-20T10:09:00;4.40;99.90
17148;DHT22;8689;47.364;8.796;2023-12-20T10:11:31;4.40;99.90
17148;DHT22;8689;47.364;8.796;2023-12-20T10:13:59;4.40;99.90
17148;DHT22;8689;47.364;8.796;2023-12-20T10:16:28;4.50;99.90
17148;DHT22;8689;47.364;8.796;2023-12-20T10:18:56;4.40;99.90
17148;DHT22;8689;47.364;8.796;2023-12-20T10:21:26;4.40;99.90
17148;DHT22;8689;47.364;8.796;2023-12-20T10:23:54;4.50;99.90
17148;DHT22;8689;47.364;8.796;2023-12-20T10:26:22;4.50;99.90
17148;DHT22;8689;47.364;8.796;2023-12-20T10:28:53;4.40;99.90
17148;DHT22;8689;47.364;8.796;2023-12-20T10:31:28;4.50;99.90
17148;DHT22;8689;47.364;8.796;2023-12-20T10:33:57;4.50;99.90
17148;DHT22;8689;47.364;8.796;2023-12-20T10:36:27;4.50;99.90
17148;DHT22;8689;47.364;8.796;2023-12-20T10:38:56;4.60;99.90
17148;DHT22;8689;47.364;8.796;2023-12-20T10:41:25;4.60;99.90
17148;DHT22;8689;47.364;8.796;2023-12-20T10:43:56;4.60;99.90
17148;DHT22;8689;47.364;8.796;2023-12-20T10:46:26;4.60;99.90
17148;DHT22;8689;47.364;8.796;2023-12-20T10:48:54;4.60;99.90
17148;DHT22;8689;47.364;8.796;2023-12-20T10:51:22;4.70;99.90
17148;DHT22;8689;47.364;8.796;2023-12-20T10:53:50;4.60;99.90
17148;DHT22;8689;47.364;8.796;2023-12-20T10:56:18;4.60;99.90
17148;DHT22;8689;47.364;8.796;2023-12-20T10:58:47;4.60;99.90
17148;DHT22;8689;47.364;8.796;2023-12-20T11:01:18;4.60;99.90
17148;DHT22;8689;47.364;8.796;2023-12-20T11:03:49;4.60;99.90
17148;DHT22;8689;47.364;8.796;2023-12-20T11:06:27;4.60;99.90
17148;DHT22;8689;47.364;8.796;2023-12-20T11:09:01;4.60;99.90
17148;DHT22;8689;47.364;8.796;2023-12-20T11:11:43;4.70;99.90
17148;DHT22;8689;47.364;8.796;2023-12-20T11:14:17;4.70;99.90
17148;DHT22;8689;47.364;8.796;2023-12-20T11:16:47;4.70;99.90
17148;DHT22;8689;47.364;8.796;2023-12-20T11:19:14;4.80;99.90
17148;DHT22;8689;47.364;8.796;2023-12-20T11:21:41;4.80;99.90
17148;DHT22;8689;47.364;8.796;2023-12-20T11:24:10;4.70;99.90
17148;DHT22;8689;47.364;8.796;2023-12-20T11:26:37;4.80;99.90
17148;DHT22;8689;47.364;8.796;2023-12-20T11:29:29;4.80;99.90
17148;DHT22;8689;47.364;8.796;2023-12-20T11:31:59;4.90;99.90
17148;DHT22;8689;47.364;8.796;2023-12-20T11:34:32;4.90;99.90
17148;DHT22;8689;47.364;8.796;2023-12-20T11:37:00;4.90;99.90
17148;DHT22;8689;47.364;8.796;2023-12-20T11:39:35;5.00;99.90
17148;DHT22;8689;47.364;8.796;2023-12-20T11:42:08;5.00;99.90
17148;DHT22;8689;47.364;8.796;2023-12-20T11:44:37;5.00;99.90
17148;DHT22;8689;47.364;8.796;2023-12-20T11:47:07;5.10;99.90
17148;DHT22;8689;47.364;8.796;2023-12-20T11:49:34;5.20;99.90
17148;DHT22;8689;47.364;8.796;2023-12-20T11:52:01;5.20;99.90
17148;DHT22;8689;47.364;8.796;2023-12-20T11:54:30;5.20;99.90
17148;DHT22;8689;47.364;8.796;2023-12-20T11:57:16;5.30;99.90
17148;DHT22;8689;47.364;8.796;2023-12-20T11:59:46;5.40;99.90
17148;DHT22;8689;47.364;8.796;2023-12-20T12:02:15;5.50;99.90
17148;DHT22;8689;47.364;8.796;2023-12-20T12:04:42;5.50;99.90
17148;DHT22;8689;47.364;8.796;2023-12-20T12:07:18;5.60;99.90
17148;DHT22;8689;47.364;8.796;2023-12-20T12:09:51;5.60;99.90
17148;DHT22;8689;47.364;8.796;2023-12-20T12:12:32;5.50;99.90
17148;DHT22;8689;47.364;8.796;2023-12-20T12:14:59;5.50;99.90
17148;DHT22;8689;47.364;8.796;2023-12-20T12:17:32;5.50;99.90
17148;DHT22;8689;47.364;8.796;2023-12-20T12:20:05;5.50;99.90
17148;DHT22;8689;47.364;8.796;2023-12-20T12:22:33;5.50;99.90
17148;DHT22;8689;47.364;8.796;2023-12-20T12:25:16;5.50;99.90
17148;DHT22;8689;47.364;8.796;2023-12-20T12:28:03;5.40;99.90
17148;DHT22;8689;47.364;8.796;2023-12-20T12:34:25;5.20;99.90
17148;DHT22;8689;47.364;8.796;2023-12-20T12:36:54;5.20;99.90
17148;DHT22;8689;47.364;8.796;2023-12-20T12:39:27;5.20;99.90
17148;DHT22;8689;47.364;8.796;2023-12-20T12:42:06;5.10;99.90
17148;DHT22;8689;47.364;8.796;2023-12-20T12:44:58;5.10;99.90
17148;DHT22;8689;47.364;8.796;2023-12-20T12:48:13;5.00;99.90
17148;DHT22;8689;47.364;8.796;2023-12-20T12:51:09;4.90;99.90
17148;DHT22;8689;47.364;8.796;2023-12-20T12:53:40;4.90;99.90
17148;DHT22;8689;47.364;8.796;2023-12-20T12:59:34;4.90;99.90
17148;DHT22;8689;47.364;8.796;2023-12-20T12:59:44;4.90;99.90
17148;DHT22;8689;47.364;8.796;2023-12-20T14:18:06;4.00;99.90
17148;DHT22;8689;47.364;8.796;2023-12-20T14:27:30;4.00;99.90
